createdAt,value
2018-08-06T00:01:08.415Z,99.10
2018-08-06T00:03:37.319Z,99.20
2018-08-06T00:06:06.230Z,99.90
2018-08-06T00:08:35.084Z,99.90
2018-08-06T00:11:03.987Z,99.90
2018-08-06T00:13:32.521Z,99.90
2018-08-06T00:16:01.371Z,99.90
2018-08-06T00:18:30.233Z,99.90
2018-08-06T00:20:59.119Z,99.90
2018-08-06T00:23:27.629Z,99.90
2018-08-06T00:25:56.105Z,99.90
2018-08-06T00:28:24.591Z,99.90
2018-08-06T00:33:21.259Z,99.90
2018-08-06T00:35:49.746Z,99.90
2018-08-06T00:38:18.580Z,99.90
2018-08-06T00:40:47.277Z,99.90
2018-08-06T00:43:15.787Z,99.90
2018-08-06T00:45:44.287Z,99.90
2018-08-06T00:48:12.783Z,99.90
2018-08-06T00:50:41.267Z,99.90
2018-08-06T00:53:10.151Z,99.90
2018-08-06T00:55:38.646Z,99.90
2018-08-06T00:58:07.523Z,99.90
2018-08-06T01:00:35.991Z,99.90
2018-08-06T01:03:04.507Z,99.90
2018-08-06T01:05:32.987Z,99.90
2018-08-06T01:08:01.473Z,99.90
2018-08-06T01:10:29.991Z,99.90
2018-08-06T01:12:58.495Z,99.90
2018-08-06T01:15:27.319Z,99.90
2018-08-06T01:17:55.810Z,99.90
2018-08-06T01:20:24.337Z,99.90
2018-08-06T01:22:53.355Z,99.90
2018-08-06T01:25:21.860Z,99.90
2018-08-06T01:27:50.380Z,99.90
2018-08-06T01:30:19.230Z,99.90
2018-08-06T01:32:47.756Z,99.90
2018-08-06T01:35:16.958Z,99.90
2018-08-06T01:37:45.511Z,99.90
2018-08-06T01:40:15.149Z,99.90
2018-08-06T01:42:43.704Z,99.90
2018-08-06T01:45:13.791Z,99.90
2018-08-06T01:47:42.259Z,99.90
2018-08-06T01:50:11.612Z,99.90
2018-08-06T01:52:40.880Z,99.90
2018-08-06T01:55:09.408Z,99.90
2018-08-06T01:57:37.887Z,99.90
2018-08-06T02:00:10.723Z,99.90
2018-08-06T02:02:39.409Z,99.90
2018-08-06T02:05:08.375Z,99.90
2018-08-06T02:07:37.106Z,99.90
2018-08-06T02:10:09.234Z,99.90
2018-08-06T02:12:38.106Z,99.90
2018-08-06T02:15:07.994Z,99.90
2018-08-06T02:17:36.634Z,99.90
2018-08-06T02:20:06.343Z,99.90
2018-08-06T02:22:34.884Z,99.90
2018-08-06T02:25:03.487Z,99.90
2018-08-06T02:27:32.012Z,99.90
2018-08-06T02:30:00.591Z,99.90
2018-08-06T02:32:29.076Z,99.90
2018-08-06T02:34:57.987Z,99.90
2018-08-06T02:37:26.807Z,99.90
2018-08-06T02:39:55.678Z,99.90
2018-08-06T02:42:24.193Z,99.90
2018-08-06T02:44:52.775Z,99.90
2018-08-06T02:47:21.625Z,99.90
2018-08-06T02:49:50.147Z,99.90
2018-08-06T02:52:18.971Z,99.90
2018-08-06T02:54:47.493Z,99.90
2018-08-06T02:57:16.322Z,99.90
2018-08-06T02:59:44.834Z,99.90
2018-08-06T03:02:13.731Z,99.90
2018-08-06T03:04:43.175Z,99.90
2018-08-06T03:07:11.627Z,99.90
2018-08-06T03:09:40.496Z,99.90
2018-08-06T03:12:09.006Z,99.90
2018-08-06T03:14:37.542Z,99.90
2018-08-06T03:17:06.413Z,99.90
2018-08-06T03:19:35.147Z,99.90
2018-08-06T03:22:03.924Z,99.90
2018-08-06T03:24:32.438Z,99.90
2018-08-06T03:29:29.508Z,99.90
2018-08-06T03:31:58.181Z,99.90
2018-08-06T03:34:26.692Z,99.90
2018-08-06T03:36:55.252Z,99.90
2018-08-06T03:39:23.831Z,99.90
2018-08-06T03:41:52.393Z,99.90
2018-08-06T03:44:20.951Z,99.90
2018-08-06T03:46:49.444Z,99.90
2018-08-06T03:49:17.927Z,99.90
2018-08-06T03:51:46.499Z,99.90
2018-08-06T03:54:15.003Z,99.90
2018-08-06T03:56:43.541Z,99.90
2018-08-06T03:59:12.011Z,99.90
2018-08-06T04:01:40.510Z,99.90
2018-08-06T04:04:09.039Z,99.90
2018-08-06T04:06:37.541Z,99.90
2018-08-06T04:09:07.371Z,99.90
2018-08-06T04:11:35.906Z,99.90
2018-08-06T04:14:04.445Z,99.90
2018-08-06T04:16:36.701Z,99.90
2018-08-06T04:19:05.642Z,99.90
2018-08-06T04:21:34.159Z,99.90
2018-08-06T04:24:02.651Z,99.90
2018-08-06T04:26:31.130Z,99.90
2018-08-06T04:28:59.595Z,99.90
2018-08-06T04:31:28.126Z,99.90
2018-08-06T04:33:56.626Z,99.90
2018-08-06T04:36:25.282Z,99.90
2018-08-06T04:38:53.784Z,99.90
2018-08-06T04:41:22.646Z,99.90
2018-08-06T04:43:51.172Z,99.90
2018-08-06T04:46:20.648Z,99.90
2018-08-06T04:48:49.798Z,99.90
2018-08-06T04:51:18.360Z,99.90
2018-08-06T04:53:46.951Z,99.90
2018-08-06T04:56:15.806Z,99.90
2018-08-06T04:58:44.646Z,99.90
2018-08-06T05:01:13.223Z,99.90
2018-08-06T05:03:42.048Z,99.90
2018-08-06T05:06:10.569Z,99.90
2018-08-06T05:08:39.054Z,99.90
2018-08-06T05:11:07.924Z,99.90
2018-08-06T05:13:37.136Z,99.90
2018-08-06T05:16:05.858Z,99.90
2018-08-06T05:18:34.344Z,99.90
2018-08-06T05:21:02.870Z,99.90
2018-08-06T05:23:41.908Z,99.90
2018-08-06T05:26:10.455Z,99.90
2018-08-06T05:28:38.951Z,99.90
2018-08-06T05:31:07.514Z,99.90
2018-08-06T05:33:36.506Z,99.90
2018-08-06T05:36:05.158Z,99.90
2018-08-06T05:38:33.651Z,99.90
2018-08-06T05:41:02.148Z,99.90
2018-08-06T05:43:30.617Z,99.90
2018-08-06T05:45:59.170Z,99.90
2018-08-06T05:48:27.672Z,99.90
2018-08-06T05:50:56.694Z,99.90
2018-08-06T05:53:25.594Z,99.90
2018-08-06T05:55:54.098Z,99.90
2018-08-06T05:58:22.680Z,99.90
2018-08-06T06:00:51.386Z,99.90
2018-08-06T06:03:19.991Z,99.90
2018-08-06T06:05:48.588Z,99.90
2018-08-06T06:08:17.150Z,99.90
2018-08-06T06:10:45.703Z,99.90
2018-08-06T06:13:14.559Z,99.90
2018-08-06T06:15:43.071Z,99.90
2018-08-06T06:18:11.619Z,99.90
2018-08-06T06:20:40.130Z,99.90
2018-08-06T06:23:08.803Z,99.90
2018-08-06T06:25:37.370Z,99.90
2018-08-06T06:28:06.392Z,97.70
2018-08-06T06:30:34.930Z,94.00
2018-08-06T06:33:03.790Z,92.20
2018-08-06T06:35:32.655Z,81.10
2018-08-06T06:38:01.158Z,64.80
2018-08-06T06:40:29.654Z,59.40
2018-08-06T06:42:58.863Z,63.20
2018-08-06T06:45:27.708Z,59.90
2018-08-06T06:47:56.576Z,61.00
2018-08-06T06:50:25.424Z,60.40
2018-08-06T06:52:54.002Z,57.30
2018-08-06T06:55:22.507Z,54.50
2018-08-06T06:57:51.576Z,52.20
2018-08-06T07:00:20.610Z,48.80
2018-08-06T07:02:49.675Z,47.10
2018-08-06T07:05:18.731Z,46.20
2018-08-06T07:07:47.846Z,44.60
2018-08-06T07:10:17.571Z,45.50
2018-08-06T07:12:46.655Z,46.50
2018-08-06T07:15:16.897Z,50.60
2018-08-06T07:17:47.803Z,53.50
2018-08-06T07:20:18.464Z,55.90
2018-08-06T07:22:47.670Z,58.00
2018-08-06T07:25:16.683Z,59.70
2018-08-06T07:27:45.559Z,58.50
2018-08-06T07:30:14.978Z,59.40
2018-08-06T07:32:44.051Z,58.50
2018-08-06T07:35:13.343Z,59.20
2018-08-06T07:37:42.015Z,59.70
2018-08-06T07:40:13.236Z,59.40
2018-08-06T07:42:41.753Z,57.30
2018-08-06T07:45:13.603Z,56.30
2018-08-06T07:47:42.790Z,55.70
2018-08-06T07:50:13.451Z,56.50
2018-08-06T07:52:42.725Z,57.20
2018-08-06T07:55:12.902Z,57.10
2018-08-06T07:57:42.080Z,55.20
2018-08-06T08:00:16.915Z,51.90
2018-08-06T08:02:46.478Z,49.80
2018-08-06T08:05:17.524Z,46.50
2018-08-06T08:07:47.639Z,46.80
2018-08-06T08:10:19.558Z,45.10
2018-08-06T08:12:48.754Z,46.50
2018-08-06T08:15:21.679Z,47.20
2018-08-06T08:17:51.564Z,49.40
2018-08-06T08:20:22.863Z,50.20
2018-08-06T08:22:52.738Z,50.20
2018-08-06T08:25:22.758Z,50.70
2018-08-06T08:27:52.537Z,52.20
2018-08-06T08:30:22.995Z,52.90
2018-08-06T08:32:52.728Z,52.70
2018-08-06T08:35:26.318Z,53.40
2018-08-06T08:37:56.165Z,53.60
2018-08-06T08:40:26.567Z,53.60
2018-08-06T08:42:55.627Z,53.30
2018-08-06T08:45:24.910Z,53.10
2018-08-06T08:47:53.995Z,53.00
2018-08-06T08:50:22.534Z,53.60
2018-08-06T08:52:51.387Z,54.80
2018-08-06T08:55:20.832Z,53.80
2018-08-06T08:57:49.367Z,54.70
2018-08-06T09:00:20.703Z,53.60
2018-08-06T09:02:50.419Z,53.10
2018-08-06T09:05:19.519Z,53.50
2018-08-06T09:07:49.550Z,53.70
2018-08-06T09:10:19.242Z,53.80
2018-08-06T09:12:48.216Z,53.00
2018-08-06T09:15:18.115Z,52.40
2018-08-06T09:17:46.613Z,52.70
2018-08-06T09:20:15.165Z,51.90
2018-08-06T09:22:44.406Z,52.10
2018-08-06T09:25:13.504Z,51.80
2018-08-06T09:27:49.323Z,51.10
2018-08-06T09:30:20.938Z,49.80
2018-08-06T09:32:58.778Z,51.70
2018-08-06T09:35:27.608Z,50.40
2018-08-06T09:37:56.111Z,49.40
2018-08-06T09:40:25.125Z,49.90
2018-08-06T09:42:53.864Z,48.80
2018-08-06T09:45:23.078Z,48.90
2018-08-06T09:47:52.635Z,49.90
2018-08-06T09:50:21.901Z,49.30
2018-08-06T09:52:51.501Z,49.80
2018-08-06T09:55:22.393Z,50.10
2018-08-06T09:57:51.311Z,50.40
2018-08-06T10:00:26.423Z,48.50
2018-08-06T10:02:56.083Z,49.20
2018-08-06T10:05:25.454Z,48.30
2018-08-06T10:07:54.428Z,47.50
2018-08-06T10:10:23.814Z,47.30
2018-08-06T10:12:52.397Z,47.80
2018-08-06T10:15:21.494Z,47.40
2018-08-06T10:17:52.571Z,47.00
2018-08-06T10:20:22.408Z,46.30
2018-08-06T10:22:50.914Z,46.30
2018-08-06T10:25:19.431Z,46.10
2018-08-06T10:27:48.354Z,46.50
2018-08-06T10:30:20.546Z,46.40
2018-08-06T10:32:49.171Z,45.30
2018-08-06T10:35:18.430Z,45.60
2018-08-06T10:37:46.982Z,45.50
2018-08-06T10:40:20.087Z,46.20
2018-08-06T10:42:48.723Z,46.80
2018-08-06T10:45:22.330Z,47.30
2018-08-06T10:47:51.260Z,45.80
2018-08-06T10:50:20.559Z,46.10
2018-08-06T10:52:49.034Z,47.80
2018-08-06T10:55:17.607Z,46.10
2018-08-06T10:57:46.434Z,46.40
2018-08-06T11:00:16.929Z,46.80
2018-08-06T11:02:45.863Z,46.50
2018-08-06T11:05:15.575Z,45.40
2018-08-06T11:07:44.503Z,46.50
2018-08-06T11:10:15.610Z,45.40
2018-08-06T11:12:44.482Z,45.60
2018-08-06T11:15:15.742Z,45.70
2018-08-06T11:17:44.738Z,46.80
2018-08-06T11:20:15.238Z,45.70
2018-08-06T11:22:43.790Z,45.80
2018-08-06T11:25:13.643Z,45.70
2018-08-06T11:27:42.275Z,45.90
2018-08-06T11:30:13.639Z,46.80
2018-08-06T11:32:42.242Z,45.20
2018-08-06T11:35:11.563Z,46.30
2018-08-06T11:37:40.666Z,47.10
2018-08-06T11:40:10.569Z,45.80
2018-08-06T11:42:39.707Z,45.30
2018-08-06T11:45:10.270Z,45.60
2018-08-06T11:47:38.765Z,44.90
2018-08-06T11:50:07.858Z,45.50
2018-08-06T11:52:36.351Z,45.90
2018-08-06T11:55:05.611Z,46.00
2018-08-06T11:57:34.130Z,45.70
2018-08-06T12:00:02.846Z,45.00
2018-08-06T12:02:31.594Z,45.60
2018-08-06T12:05:00.067Z,44.60
2018-08-06T12:07:28.917Z,44.70
2018-08-06T12:09:57.386Z,43.50
2018-08-06T12:12:26.260Z,44.20
2018-08-06T12:14:54.775Z,44.50
2018-08-06T12:17:23.653Z,44.00
2018-08-06T12:19:52.187Z,44.20
2018-08-06T12:22:20.727Z,44.90
2018-08-06T12:24:49.235Z,44.30
2018-08-06T12:27:18.059Z,44.60
2018-08-06T12:29:46.666Z,44.20
2018-08-06T12:32:15.243Z,43.50
2018-08-06T12:34:43.775Z,42.50
2018-08-06T12:37:12.494Z,42.70
2018-08-06T12:39:40.959Z,42.70
2018-08-06T12:42:09.490Z,42.40
2018-08-06T12:44:38.254Z,43.20
2018-08-06T12:47:06.771Z,42.90
2018-08-06T12:49:35.616Z,43.00
2018-08-06T12:52:04.188Z,43.00
2018-08-06T12:54:32.671Z,43.00
2018-08-06T12:57:01.236Z,43.60
2018-08-06T12:59:29.915Z,42.40
2018-08-06T13:01:58.491Z,43.30
2018-08-06T13:04:27.427Z,42.90
2018-08-06T13:06:55.947Z,43.70
2018-08-06T13:09:24.766Z,44.40
2018-08-06T13:11:53.267Z,43.80
2018-08-06T13:14:21.747Z,43.50
2018-08-06T13:16:50.482Z,44.20
2018-08-06T13:19:18.988Z,43.70
2018-08-06T13:21:48.103Z,43.50
2018-08-06T13:24:17.011Z,42.80
2018-08-06T13:26:45.875Z,42.80
2018-08-06T13:29:15.015Z,42.70
2018-08-06T13:31:43.856Z,41.10
2018-08-06T13:34:12.406Z,41.10
2018-08-06T13:36:41.331Z,41.70
2018-08-06T13:39:10.779Z,42.00
2018-08-06T13:41:40.003Z,41.50
2018-08-06T13:44:08.866Z,40.90
2018-08-06T13:46:38.087Z,41.30
2018-08-06T13:49:07.527Z,42.60
2018-08-06T13:51:36.784Z,42.00
2018-08-06T13:54:05.589Z,42.30
2018-08-06T13:56:34.115Z,42.60
2018-08-06T13:59:03.292Z,42.20
2018-08-06T14:04:00.701Z,40.50
2018-08-06T14:06:29.907Z,41.40
2018-08-06T14:08:59.291Z,41.00
2018-08-06T14:11:28.194Z,39.20
2018-08-06T14:13:56.751Z,40.00
2018-08-06T14:16:25.599Z,40.60
2018-08-06T14:18:54.175Z,39.90
2018-08-06T14:21:22.690Z,40.10
2018-08-06T14:23:51.179Z,39.90
2018-08-06T14:26:19.694Z,39.80
2018-08-06T14:31:17.116Z,39.50
2018-08-06T14:33:45.856Z,40.80
2018-08-06T14:36:15.105Z,39.80
2018-08-06T14:38:44.258Z,39.50
2018-08-06T14:41:13.566Z,39.80
2018-08-06T14:43:42.131Z,40.60
2018-08-06T14:46:10.639Z,40.30
2018-08-06T14:48:39.718Z,39.50
2018-08-06T14:51:08.756Z,39.80
2018-08-06T14:53:37.634Z,39.60
2018-08-06T14:56:07.078Z,40.10
2018-08-06T14:58:36.349Z,39.60
2018-08-06T15:01:04.890Z,39.80
2018-08-06T15:03:33.770Z,39.00
2018-08-06T15:06:03.079Z,39.20
2018-08-06T15:08:32.374Z,39.70
2018-08-06T15:11:01.944Z,39.60
2018-08-06T15:13:30.915Z,38.90
2018-08-06T15:15:59.446Z,39.50
2018-08-06T15:18:29.298Z,39.90
2018-08-06T15:20:58.264Z,40.20
2018-08-06T15:23:27.159Z,41.00
2018-08-06T15:25:55.655Z,41.00
2018-08-06T15:28:24.186Z,40.40
2018-08-06T15:30:53.199Z,41.20
2018-08-06T15:33:21.951Z,41.30
2018-08-06T15:35:50.918Z,40.80
2018-08-06T15:38:19.547Z,41.00
2018-08-06T15:40:48.691Z,41.70
2018-08-06T15:43:19.148Z,41.50
2018-08-06T15:45:47.802Z,41.10
2018-08-06T15:48:16.315Z,40.90
2018-08-06T15:50:44.875Z,40.90
2018-08-06T15:53:13.426Z,40.80
2018-08-06T15:55:42.349Z,41.50
2018-08-06T15:58:10.843Z,40.80
2018-08-06T16:00:39.324Z,40.90
2018-08-06T16:03:08.183Z,40.00
2018-08-06T16:05:36.667Z,41.20
2018-08-06T16:08:05.528Z,41.70
2018-08-06T16:10:34.033Z,41.10
2018-08-06T16:13:02.875Z,42.40
2018-08-06T16:15:31.408Z,41.00
2018-08-06T16:18:00.295Z,41.00
2018-08-06T16:20:29.697Z,42.30
2018-08-06T16:22:59.188Z,41.30
2018-08-06T16:25:29.368Z,41.20
2018-08-06T16:27:58.179Z,41.40
2018-08-06T16:30:27.003Z,41.70
2018-08-06T16:32:56.367Z,41.50
2018-08-06T16:35:25.774Z,41.50
2018-08-06T16:37:56.276Z,41.40
2018-08-06T16:40:26.865Z,40.60
2018-08-06T16:42:56.083Z,40.60
2018-08-06T16:45:24.886Z,41.00
2018-08-06T16:47:53.408Z,42.40
2018-08-06T16:52:50.398Z,41.50
2018-08-06T16:55:19.023Z,41.30
2018-08-06T16:57:47.899Z,40.50
2018-08-06T17:00:21.180Z,40.50
2018-08-06T17:02:50.795Z,40.30
2018-08-06T17:05:19.797Z,41.50
2018-08-06T17:07:49.538Z,41.50
2018-08-06T17:10:21.147Z,42.60
2018-08-06T17:12:51.040Z,42.10
2018-08-06T17:15:20.554Z,42.40
2018-08-06T17:17:51.615Z,42.10
2018-08-06T17:20:21.663Z,42.70
2018-08-06T17:22:50.906Z,42.50
2018-08-06T17:25:19.637Z,41.60
2018-08-06T17:27:48.222Z,41.60
2018-08-06T17:30:17.537Z,41.30
2018-08-06T17:32:46.283Z,42.40
2018-08-06T17:35:15.799Z,42.90
2018-08-06T17:37:44.822Z,43.20
2018-08-06T17:40:15.824Z,43.60
2018-08-06T17:42:44.399Z,43.20
2018-08-06T17:45:15.510Z,44.60
2018-08-06T17:47:44.065Z,45.30
2018-08-06T17:50:15.660Z,45.70
2018-08-06T17:52:45.829Z,45.70
2018-08-06T17:55:15.010Z,45.10
2018-08-06T17:57:43.888Z,44.40
2018-08-06T18:00:12.830Z,45.90
2018-08-06T18:02:41.727Z,46.10
2018-08-06T18:05:12.539Z,46.20
2018-08-06T18:07:41.469Z,48.30
2018-08-06T18:10:11.982Z,48.70
2018-08-06T18:12:40.748Z,48.60
2018-08-06T18:15:09.251Z,49.20
2018-08-06T18:17:38.242Z,49.00
2018-08-06T18:20:11.018Z,49.10
2018-08-06T18:22:39.520Z,49.60
2018-08-06T18:25:10.252Z,50.00
2018-08-06T18:27:39.391Z,50.80
2018-08-06T18:30:12.181Z,51.60
2018-08-06T18:32:40.809Z,52.80
2018-08-06T18:35:10.854Z,52.80
2018-08-06T18:37:40.239Z,53.00
2018-08-06T18:40:09.726Z,53.20
2018-08-06T18:42:38.260Z,54.10
2018-08-06T18:45:09.338Z,54.20
2018-08-06T18:47:37.922Z,54.70
2018-08-06T18:50:07.424Z,55.10
2018-08-06T18:52:35.951Z,56.20
2018-08-06T18:55:05.279Z,56.40
2018-08-06T18:57:33.779Z,57.00
2018-08-06T19:00:02.270Z,57.10
2018-08-06T19:02:31.451Z,57.60
2018-08-06T19:05:00.662Z,58.60
2018-08-06T19:07:29.242Z,60.30
2018-08-06T19:09:58.364Z,60.90
2018-08-06T19:12:32.446Z,58.30
2018-08-06T19:15:00.972Z,58.10
2018-08-06T19:17:29.886Z,58.60
2018-08-06T19:19:58.740Z,58.40
2018-08-06T19:22:28.943Z,57.70
2018-08-06T19:25:03.011Z,57.80
2018-08-06T19:27:32.861Z,57.40
2018-08-06T19:30:01.359Z,59.50
2018-08-06T19:32:30.146Z,59.60
2018-08-06T19:34:58.671Z,60.80
2018-08-06T19:37:32.686Z,60.50
2018-08-06T19:40:01.532Z,64.00
2018-08-06T19:44:37.201Z,61.80
2018-08-06T19:47:05.739Z,62.10
2018-08-06T19:49:39.638Z,65.10
2018-08-06T19:52:08.512Z,63.50
2018-08-06T19:54:37.394Z,63.20
2018-08-06T19:57:06.283Z,62.90
2018-08-06T19:59:36.339Z,63.70
2018-08-06T20:02:04.948Z,63.60
2018-08-06T20:04:33.583Z,63.60
2018-08-06T20:07:02.074Z,64.10
2018-08-06T20:09:30.601Z,64.20
2018-08-06T20:11:59.135Z,65.50
2018-08-06T20:14:27.963Z,64.00
2018-08-06T20:16:56.468Z,64.30
2018-08-06T20:19:25.286Z,65.60
2018-08-06T20:21:53.821Z,64.40
2018-08-06T20:24:22.690Z,65.20
2018-08-06T20:26:51.835Z,65.10
2018-08-06T20:29:20.320Z,65.50
2018-08-06T20:31:48.867Z,66.00
2018-08-06T20:34:17.717Z,66.20
2018-08-06T20:36:46.216Z,67.50
2018-08-06T20:39:14.736Z,67.10
2018-08-06T20:41:43.295Z,67.70
2018-08-06T20:44:11.787Z,68.60
2018-08-06T20:46:40.300Z,68.70
2018-08-06T20:49:08.780Z,69.60
2018-08-06T20:51:37.330Z,70.40
2018-08-06T20:54:06.187Z,72.60
2018-08-06T20:56:34.837Z,72.90
2018-08-06T20:59:03.739Z,73.00
2018-08-06T21:01:32.590Z,73.70
2018-08-06T21:04:01.127Z,74.50
2018-08-06T21:06:29.626Z,74.20
2018-08-06T21:08:58.142Z,73.10
2018-08-06T21:11:26.661Z,73.90
2018-08-06T21:13:56.127Z,73.80
2018-08-06T21:16:24.695Z,74.70
2018-08-06T21:18:53.768Z,75.80
2018-08-06T21:21:22.598Z,73.60
2018-08-06T21:23:51.114Z,73.40
2018-08-06T21:26:19.607Z,72.90
2018-08-06T21:28:48.103Z,73.40
2018-08-06T21:31:17.011Z,74.40
2018-08-06T21:33:45.922Z,75.30
2018-08-06T21:36:15.058Z,75.40
2018-08-06T21:38:43.923Z,76.30
2018-08-06T21:41:12.419Z,75.00
2018-08-06T21:43:41.291Z,75.70
2018-08-06T21:46:09.788Z,77.20
2018-08-06T21:48:38.287Z,77.50
2018-08-06T21:51:06.827Z,77.10
2018-08-06T21:53:35.318Z,78.90
2018-08-06T21:56:04.527Z,78.50
2018-08-06T21:58:33.096Z,79.20
2018-08-06T22:01:01.640Z,80.00
2018-08-06T22:03:30.694Z,80.70
2018-08-06T22:05:59.859Z,81.80
2018-08-06T22:08:28.422Z,81.00
2018-08-06T22:10:57.008Z,81.70
2018-08-06T22:13:25.551Z,83.50
2018-08-06T22:15:54.022Z,82.30
2018-08-06T22:18:22.551Z,82.00
2018-08-06T22:20:51.035Z,81.20
2018-08-06T22:23:19.540Z,80.00
2018-08-06T22:25:48.052Z,80.90
2018-08-06T22:28:16.628Z,80.80
2018-08-06T22:30:45.756Z,81.20
2018-08-06T22:33:15.374Z,81.40
2018-08-06T22:35:44.239Z,81.60
2018-08-06T22:38:12.851Z,82.50
2018-08-06T22:40:41.365Z,83.00
2018-08-06T22:45:38.068Z,84.20
2018-08-06T22:48:06.918Z,83.90
2018-08-06T22:50:36.236Z,86.10
2018-08-06T22:53:04.793Z,85.80
2018-08-06T22:55:44.551Z,86.50
2018-08-06T23:00:41.861Z,87.30
2018-08-06T23:03:10.434Z,87.60
2018-08-06T23:05:38.986Z,88.10
2018-08-06T23:08:07.949Z,87.90
2018-08-06T23:10:36.502Z,88.30
2018-08-06T23:13:05.068Z,90.70
2018-08-06T23:15:33.619Z,90.60
2018-08-06T23:18:02.113Z,90.60
2018-08-06T23:20:30.991Z,90.40
2018-08-06T23:22:59.503Z,90.20
2018-08-06T23:25:27.990Z,89.70
2018-08-06T23:27:56.487Z,89.60
2018-08-06T23:30:24.987Z,89.80
2018-08-06T23:32:53.827Z,90.00
2018-08-06T23:35:22.715Z,90.20
2018-08-06T23:37:51.265Z,90.30
2018-08-06T23:40:20.152Z,90.50
2018-08-06T23:42:48.643Z,91.60
2018-08-06T23:45:17.241Z,91.40
2018-08-06T23:47:45.931Z,91.70
2018-08-06T23:50:15.474Z,92.10
2018-08-06T23:52:45.119Z,92.90
2018-08-06T23:55:15.186Z,92.40
2018-08-06T23:57:43.690Z,92.30
